createdAt,value
2023-02-12T00:00:54.424Z,0.00
2023-02-12T00:01:54.395Z,0.00
2023-02-12T00:02:54.415Z,0.00
2023-02-12T00:03:54.536Z,0.00
2023-02-12T00:04:54.372Z,0.00
2023-02-12T00:05:54.705Z,0.00
2023-02-12T00:06:54.354Z,0.00
2023-02-12T00:07:54.326Z,0.00
2023-02-12T00:08:54.345Z,0.00
2023-02-12T00:09:54.320Z,0.00
2023-02-12T00:10:54.293Z,0.00
2023-02-12T00:11:54.293Z,0.00
2023-02-12T00:12:54.298Z,0.00
2023-02-12T00:13:54.298Z,0.00
2023-02-12T00:14:54.259Z,0.00
2023-02-12T00:15:54.802Z,0.00
2023-02-12T00:16:54.233Z,0.00
2023-02-12T00:17:54.240Z,0.00
2023-02-12T00:18:54.264Z,0.00
2023-02-12T00:19:54.202Z,0.00
2023-02-12T00:20:54.187Z,0.00
2023-02-12T00:21:54.183Z,0.00
2023-02-12T00:22:54.178Z,0.00
2023-02-12T00:23:54.184Z,0.00
2023-02-12T00:24:54.152Z,0.00
2023-02-12T00:25:54.515Z,0.00
2023-02-12T00:26:54.153Z,0.00
2023-02-12T00:27:54.133Z,0.00
2023-02-12T00:28:54.107Z,0.00
2023-02-12T00:29:54.120Z,0.00
2023-02-12T00:30:54.182Z,0.00
2023-02-12T00:31:54.129Z,0.00
2023-02-12T00:32:54.056Z,0.00
2023-02-12T00:33:54.059Z,0.00
2023-02-12T00:34:54.047Z,0.00
2023-02-12T00:35:54.434Z,0.00
2023-02-12T00:36:54.017Z,0.00
2023-02-12T00:37:54.009Z,0.00
2023-02-12T00:38:53.995Z,0.00
2023-02-12T00:39:53.974Z,0.00
2023-02-12T00:40:53.977Z,0.00
2023-02-12T00:41:53.991Z,0.00
2023-02-12T00:42:53.954Z,0.00
2023-02-12T00:43:53.939Z,0.00
2023-02-12T00:44:53.922Z,0.00
2023-02-12T00:45:54.382Z,0.00
2023-02-12T00:46:53.904Z,0.00
2023-02-12T00:47:53.907Z,0.00
2023-02-12T00:48:53.897Z,0.00
2023-02-12T00:49:53.880Z,0.00
2023-02-12T00:50:53.886Z,0.00
2023-02-12T00:51:53.857Z,0.00
2023-02-12T00:52:53.839Z,0.00
2023-02-12T00:53:53.841Z,0.00
2023-02-12T00:54:53.810Z,0.00
2023-02-12T00:55:54.339Z,0.00
2023-02-12T00:56:53.793Z,0.00
2023-02-12T00:57:53.786Z,0.00
2023-02-12T00:58:53.781Z,0.00
2023-02-12T00:59:53.776Z,0.00
2023-02-12T01:00:53.761Z,0.00
2023-02-12T01:01:53.848Z,0.00
2023-02-12T01:02:53.730Z,0.00
2023-02-12T01:03:53.712Z,0.00
2023-02-12T01:04:53.737Z,0.00
2023-02-12T01:05:54.192Z,0.00
2023-02-12T01:06:53.683Z,0.00
2023-02-12T01:07:53.684Z,0.00
2023-02-12T01:08:53.668Z,0.00
2023-02-12T01:09:53.656Z,0.00
2023-02-12T01:10:53.645Z,0.00
2023-02-12T01:11:53.648Z,0.00
2023-02-12T01:12:53.634Z,0.00
2023-02-12T01:13:53.612Z,0.00
2023-02-12T01:14:53.595Z,0.00
2023-02-12T01:15:53.963Z,0.00
2023-02-12T01:16:53.600Z,0.00
2023-02-12T01:17:53.583Z,0.00
2023-02-12T01:18:55.800Z,0.00
2023-02-12T01:19:53.550Z,0.00
2023-02-12T01:20:53.530Z,0.00
2023-02-12T01:21:53.542Z,0.00
2023-02-12T01:22:53.521Z,0.00
2023-02-12T01:23:53.510Z,0.00
2023-02-12T01:24:53.486Z,0.00
2023-02-12T01:25:53.675Z,0.00
2023-02-12T01:26:53.465Z,0.00
2023-02-12T01:27:53.452Z,0.00
2023-02-12T01:28:53.459Z,0.00
2023-02-12T01:29:53.436Z,0.00
2023-02-12T01:30:53.540Z,0.00
2023-02-12T01:31:53.621Z,0.00
2023-02-12T01:32:53.398Z,0.00
2023-02-12T01:33:53.440Z,0.00
2023-02-12T01:34:53.382Z,0.00
2023-02-12T01:35:53.715Z,0.00
2023-02-12T01:36:53.353Z,0.00
2023-02-12T01:37:53.364Z,0.00
2023-02-12T01:38:53.356Z,0.00
2023-02-12T01:39:53.330Z,0.00
2023-02-12T01:40:53.318Z,0.00
2023-02-12T01:41:53.305Z,0.00
2023-02-12T01:42:53.315Z,0.00
2023-02-12T01:43:53.286Z,0.00
2023-02-12T01:44:53.288Z,0.00
2023-02-12T01:45:53.980Z,0.00
2023-02-12T01:46:53.252Z,0.00
2023-02-12T01:47:53.257Z,0.00
2023-02-12T01:48:53.234Z,0.00
2023-02-12T01:49:53.258Z,0.00
2023-02-12T01:50:53.209Z,0.00
2023-02-12T01:51:53.196Z,0.00
2023-02-12T01:52:53.194Z,0.00
2023-02-12T01:53:53.173Z,0.00
2023-02-12T01:54:55.590Z,0.00
2023-02-12T01:55:53.377Z,0.00
2023-02-12T01:56:53.140Z,0.00
2023-02-12T01:57:53.132Z,0.00
2023-02-12T01:58:53.134Z,0.00
2023-02-12T01:59:53.133Z,0.00
2023-02-12T02:00:53.089Z,0.00
2023-02-12T02:01:53.152Z,0.00
2023-02-12T02:02:53.110Z,0.00
2023-02-12T02:03:53.063Z,0.00
2023-02-12T02:04:53.041Z,0.00
2023-02-12T02:05:53.379Z,0.00
2023-02-12T02:06:53.040Z,0.00
2023-02-12T02:07:53.010Z,0.00
2023-02-12T02:08:53.016Z,0.00
2023-02-12T02:09:52.998Z,0.00
2023-02-12T02:10:52.992Z,0.00
2023-02-12T02:11:52.977Z,0.00
2023-02-12T02:12:52.973Z,0.00
2023-02-12T02:13:52.947Z,0.00
2023-02-12T02:14:52.951Z,0.00
2023-02-12T02:15:53.060Z,0.00
2023-02-12T02:16:52.906Z,0.00
2023-02-12T02:17:52.957Z,0.00
2023-02-12T02:18:52.906Z,0.00
2023-02-12T02:19:52.876Z,0.00
2023-02-12T02:20:52.869Z,0.00
2023-02-12T02:21:52.892Z,0.00
2023-02-12T02:22:52.841Z,0.00
2023-02-12T02:23:52.832Z,0.00
2023-02-12T02:24:52.822Z,0.00
2023-02-12T02:25:53.298Z,0.00
2023-02-12T02:26:52.802Z,0.00
2023-02-12T02:27:52.801Z,0.00
2023-02-12T02:28:52.777Z,0.00
2023-02-12T02:29:52.769Z,0.00
2023-02-12T02:30:52.813Z,0.00
2023-02-12T02:31:52.850Z,0.00
2023-02-12T02:32:52.758Z,0.00
2023-02-12T02:33:52.724Z,0.00
2023-02-12T02:34:52.709Z,0.00
2023-02-12T02:35:52.777Z,0.00
2023-02-12T02:37:00.438Z,0.00
2023-02-12T02:37:53.705Z,0.00
2023-02-12T02:38:52.661Z,0.00
2023-02-12T02:39:52.668Z,0.00
2023-02-12T02:40:52.653Z,0.00
2023-02-12T02:41:52.628Z,0.00
2023-02-12T02:42:52.650Z,0.00
2023-02-12T02:43:52.619Z,0.00
2023-02-12T02:44:52.615Z,0.00
2023-02-12T02:45:52.602Z,0.00
2023-02-12T02:46:52.629Z,0.00
2023-02-12T02:47:52.579Z,0.00
2023-02-12T02:48:52.587Z,0.00
2023-02-12T02:49:52.546Z,0.00
2023-02-12T02:50:52.560Z,0.00
2023-02-12T02:51:52.536Z,0.00
2023-02-12T02:52:52.525Z,0.00
2023-02-12T02:53:52.554Z,0.00
2023-02-12T02:54:52.505Z,0.00
2023-02-12T02:55:52.784Z,0.00
2023-02-12T02:56:52.464Z,0.00
2023-02-12T02:57:52.466Z,0.00
2023-02-12T02:58:52.462Z,0.00
2023-02-12T02:59:52.453Z,0.00
2023-02-12T03:00:52.428Z,0.00
2023-02-12T03:01:52.409Z,0.00
2023-02-12T03:02:52.480Z,0.00
2023-02-12T03:03:52.416Z,0.00
2023-02-12T03:04:52.397Z,0.00
2023-02-12T03:05:52.472Z,0.00
2023-02-12T03:06:52.373Z,0.00
2023-02-12T03:07:52.405Z,0.00
2023-02-12T03:08:52.354Z,0.00
2023-02-12T03:09:52.369Z,0.00
2023-02-12T03:10:52.331Z,0.00
2023-02-12T03:11:52.304Z,0.00
2023-02-12T03:12:52.341Z,0.00
2023-02-12T03:13:52.294Z,0.00
2023-02-12T03:14:52.287Z,0.00
2023-02-12T03:15:52.273Z,0.00
2023-02-12T03:16:52.247Z,0.00
2023-02-12T03:17:52.256Z,0.00
2023-02-12T03:18:52.244Z,0.00
2023-02-12T03:19:52.236Z,0.00
2023-02-12T03:20:52.201Z,0.00
2023-02-12T03:21:52.201Z,0.00
2023-02-12T03:22:52.222Z,0.00
2023-02-12T03:23:52.173Z,0.00
2023-02-12T03:24:52.162Z,0.00
2023-02-12T03:25:52.243Z,0.00
2023-02-12T03:26:52.160Z,0.00
2023-02-12T03:27:52.126Z,0.00
2023-02-12T03:28:52.128Z,0.00
2023-02-12T03:29:52.105Z,0.00
2023-02-12T03:30:52.177Z,0.00
2023-02-12T03:31:52.125Z,0.00
2023-02-12T03:32:52.100Z,0.00
2023-02-12T03:33:52.089Z,0.00
2023-02-12T03:34:52.062Z,0.00
2023-02-12T03:35:52.052Z,0.00
2023-02-12T03:36:52.033Z,0.00
2023-02-12T03:37:52.025Z,0.00
2023-02-12T03:38:52.025Z,0.00
2023-02-12T03:39:52.005Z,0.00
2023-02-12T03:40:52.001Z,0.00
2023-02-12T03:41:52.001Z,0.00
2023-02-12T03:42:51.970Z,0.00
2023-02-12T03:43:51.974Z,0.00
2023-02-12T03:44:51.952Z,0.00
2023-02-12T03:45:51.954Z,0.00
2023-02-12T03:46:51.928Z,0.00
2023-02-12T03:47:51.914Z,0.00
2023-02-12T03:48:51.902Z,0.00
2023-02-12T03:49:51.906Z,0.00
2023-02-12T03:50:51.937Z,0.00
2023-02-12T03:51:51.903Z,0.00
2023-02-12T03:52:51.875Z,0.00
2023-02-12T03:53:51.848Z,0.00
2023-02-12T03:54:51.853Z,0.00
2023-02-12T03:55:51.818Z,0.00
2023-02-12T03:56:51.814Z,0.00
2023-02-12T03:57:51.869Z,0.00
2023-02-12T03:58:51.822Z,0.00
2023-02-12T03:59:51.772Z,0.00
2023-02-12T04:00:51.827Z,0.00
2023-02-12T04:01:51.862Z,0.00
2023-02-12T04:02:51.780Z,0.00
2023-02-12T04:03:51.859Z,0.00
2023-02-12T04:04:51.728Z,0.00
2023-02-12T04:05:51.726Z,0.00
2023-02-12T04:06:51.698Z,0.00
2023-02-12T04:07:51.695Z,0.00
2023-02-12T04:08:51.676Z,0.00
2023-02-12T04:09:51.688Z,0.00
2023-02-12T04:10:51.677Z,0.00
2023-02-12T04:11:52.107Z,0.00
2023-02-12T04:12:51.641Z,0.00
2023-02-12T04:13:51.661Z,0.00
2023-02-12T04:14:51.621Z,0.00
2023-02-12T04:15:51.608Z,0.00
2023-02-12T04:16:51.683Z,0.00
2023-02-12T04:17:51.619Z,0.00
2023-02-12T04:18:51.582Z,0.00
2023-02-12T04:19:51.547Z,0.00
2023-02-12T04:20:51.559Z,0.00
2023-02-12T04:21:51.538Z,0.00
2023-02-12T04:22:51.538Z,0.00
2023-02-12T04:23:51.520Z,0.00
2023-02-12T04:24:51.492Z,0.00
2023-02-12T04:25:51.516Z,0.00
2023-02-12T04:26:51.495Z,0.00
2023-02-12T04:27:51.461Z,0.00
2023-02-12T04:28:51.459Z,0.00
2023-02-12T04:29:51.489Z,0.00
2023-02-12T04:30:51.524Z,0.00
2023-02-12T04:31:51.587Z,0.00
2023-02-12T04:32:51.429Z,0.00
2023-02-12T04:33:51.399Z,0.00
2023-02-12T04:34:51.391Z,0.00
2023-02-12T04:35:51.400Z,0.00
2023-02-12T04:36:51.373Z,0.00
2023-02-12T04:37:51.374Z,0.00
2023-02-12T04:38:51.362Z,0.00
2023-02-12T04:39:51.348Z,0.00
2023-02-12T04:40:51.345Z,0.00
2023-02-12T04:41:51.323Z,0.00
2023-02-12T04:42:51.345Z,0.00
2023-02-12T04:43:51.291Z,0.00
2023-02-12T04:44:51.294Z,0.00
2023-02-12T04:45:51.405Z,0.00
2023-02-12T04:46:51.263Z,0.00
2023-02-12T04:47:51.256Z,0.00
2023-02-12T04:48:51.248Z,0.00
2023-02-12T04:49:51.238Z,0.00
2023-02-12T04:50:51.220Z,0.00
2023-02-12T04:51:51.225Z,0.00
2023-02-12T04:52:51.209Z,0.00
2023-02-12T04:53:51.194Z,0.00
2023-02-12T04:54:51.192Z,0.00
2023-02-12T04:55:51.174Z,0.00
2023-02-12T04:56:51.174Z,0.00
2023-02-12T04:57:51.146Z,0.00
2023-02-12T04:58:51.145Z,0.00
2023-02-12T04:59:51.131Z,0.00
2023-02-12T05:00:51.120Z,0.00
2023-02-12T05:01:51.211Z,0.00
2023-02-12T05:02:51.098Z,0.00
2023-02-12T05:03:51.085Z,0.00
2023-02-12T05:04:51.118Z,0.00
2023-02-12T05:05:51.066Z,0.00
2023-02-12T05:06:51.079Z,0.00
2023-02-12T05:07:51.038Z,0.00
2023-02-12T05:08:51.028Z,0.00
2023-02-12T05:09:51.031Z,0.00
2023-02-12T05:10:51.012Z,0.00
2023-02-12T05:11:50.996Z,0.00
2023-02-12T05:12:50.986Z,0.00
2023-02-12T05:13:50.961Z,0.00
2023-02-12T05:14:50.954Z,0.00
2023-02-12T05:15:50.989Z,0.00
2023-02-12T05:16:50.947Z,0.00
2023-02-12T05:17:50.964Z,0.00
2023-02-12T05:18:50.908Z,0.00
2023-02-12T05:19:50.898Z,0.00
2023-02-12T05:20:50.902Z,0.00
2023-02-12T05:21:50.881Z,0.00
2023-02-12T05:22:50.861Z,0.00
2023-02-12T05:23:50.866Z,0.00
2023-02-12T05:24:50.862Z,0.00
2023-02-12T05:25:50.855Z,0.00
2023-02-12T05:26:50.831Z,0.00
2023-02-12T05:27:50.815Z,0.00
2023-02-12T05:28:50.834Z,0.00
2023-02-12T05:29:50.789Z,0.00
2023-02-12T05:30:50.904Z,0.00
2023-02-12T05:31:50.900Z,0.00
2023-02-12T05:32:50.783Z,0.00
2023-02-12T05:33:50.770Z,0.00
2023-02-12T05:34:50.743Z,0.00
2023-02-12T05:35:50.744Z,0.00
2023-02-12T05:36:50.725Z,0.00
2023-02-12T05:37:50.712Z,0.00
2023-02-12T05:38:50.696Z,0.00
2023-02-12T05:39:50.692Z,0.00
2023-02-12T05:40:50.679Z,0.00
2023-02-12T05:41:50.665Z,0.00
2023-02-12T05:42:50.656Z,0.00
2023-02-12T05:43:50.646Z,0.00
2023-02-12T05:44:50.626Z,0.00
2023-02-12T05:45:50.615Z,0.00
2023-02-12T05:46:50.645Z,0.00
2023-02-12T05:47:50.586Z,0.00
2023-02-12T05:48:50.633Z,0.00
2023-02-12T05:49:50.600Z,0.00
2023-02-12T05:50:53.108Z,0.00
2023-02-12T05:51:50.557Z,0.00
2023-02-12T05:52:50.549Z,0.00
2023-02-12T05:53:50.550Z,0.00
2023-02-12T05:54:50.522Z,0.00
2023-02-12T05:55:50.523Z,0.00
2023-02-12T05:56:50.509Z,0.00
2023-02-12T05:57:50.479Z,0.00
2023-02-12T05:58:50.467Z,0.00
2023-02-12T05:59:50.468Z,0.00
2023-02-12T06:00:50.462Z,0.00
2023-02-12T06:01:50.463Z,0.00
2023-02-12T06:02:50.504Z,0.00
2023-02-12T06:03:50.494Z,0.00
2023-02-12T06:04:50.398Z,0.00
2023-02-12T06:05:50.439Z,0.00
2023-02-12T06:06:50.383Z,0.00
2023-02-12T06:07:50.381Z,0.00
2023-02-12T06:08:50.379Z,0.00
2023-02-12T06:09:50.361Z,0.00
2023-02-12T06:10:50.332Z,0.00
2023-02-12T06:11:50.348Z,0.00
2023-02-12T06:12:50.312Z,0.00
2023-02-12T06:13:50.329Z,0.00
2023-02-12T06:14:50.297Z,0.00
2023-02-12T06:15:50.303Z,0.00
2023-02-12T06:16:50.280Z,0.00
2023-02-12T06:17:50.258Z,0.00
2023-02-12T06:18:50.260Z,0.00
2023-02-12T06:19:50.249Z,0.00
2023-02-12T06:20:50.227Z,4.00
2023-02-12T06:21:50.265Z,4.00
2023-02-12T06:22:57.994Z,0.00
2023-02-12T06:23:50.195Z,4.00
2023-02-12T06:24:50.196Z,4.00
2023-02-12T06:25:50.180Z,4.00
2023-02-12T06:26:50.184Z,4.00
2023-02-12T06:27:50.141Z,4.00
2023-02-12T06:28:50.166Z,4.00
2023-02-12T06:29:50.138Z,8.00
2023-02-12T06:30:50.117Z,8.00
2023-02-12T06:31:50.249Z,12.00
2023-02-12T06:32:50.121Z,16.00
2023-02-12T06:33:50.100Z,16.00
2023-02-12T06:34:50.091Z,20.00
2023-02-12T06:35:50.056Z,24.00
2023-02-12T06:36:50.059Z,28.00
2023-02-12T06:37:50.062Z,32.00
2023-02-12T06:38:50.042Z,32.00
2023-02-12T06:39:50.043Z,40.00
2023-02-12T06:40:50.022Z,44.00
2023-02-12T06:41:49.992Z,48.00
2023-02-12T06:42:50.454Z,52.00
2023-02-12T06:43:49.969Z,60.00
2023-02-12T06:44:52.695Z,68.00
2023-02-12T06:45:49.978Z,72.00
2023-02-12T06:46:49.956Z,80.00
2023-02-12T06:47:49.939Z,92.00
2023-02-12T06:48:49.916Z,96.00
2023-02-12T06:49:49.929Z,104.00
2023-02-12T06:50:49.901Z,104.00
2023-02-12T06:51:49.950Z,112.00
2023-02-12T06:52:49.877Z,116.00
2023-02-12T06:53:49.906Z,128.00
2023-02-12T06:54:49.869Z,132.00
2023-02-12T06:55:49.856Z,140.00
2023-02-12T06:56:49.931Z,152.00
2023-02-12T06:57:49.835Z,160.00
2023-02-12T06:58:49.827Z,168.00
2023-02-12T06:59:49.806Z,180.00
2023-02-12T07:00:49.867Z,192.00
2023-02-12T07:01:49.886Z,200.00
2023-02-12T07:02:49.763Z,212.00
2023-02-12T07:03:49.844Z,228.00
2023-02-12T07:04:49.749Z,244.00
2023-02-12T07:05:49.757Z,256.00
2023-02-12T07:06:49.723Z,272.00
2023-02-12T07:07:49.738Z,288.00
2023-02-12T07:08:49.703Z,300.00
2023-02-12T07:09:49.724Z,312.00
2023-02-12T07:10:49.696Z,332.00
2023-02-12T07:11:49.694Z,348.00
2023-02-12T07:12:49.673Z,368.00
2023-02-12T07:13:49.655Z,396.00
2023-02-12T07:14:49.643Z,428.00
2023-02-12T07:15:49.646Z,460.00
2023-02-12T07:16:49.650Z,488.00
2023-02-12T07:17:49.621Z,516.00
2023-02-12T07:18:49.601Z,540.00
2023-02-12T07:19:49.578Z,556.00
2023-02-12T07:20:49.577Z,572.00
2023-02-12T07:21:49.581Z,588.00
2023-02-12T07:22:49.586Z,604.00
2023-02-12T07:23:51.189Z,628.00
2023-02-12T07:24:49.531Z,656.00
2023-02-12T07:25:49.548Z,680.00
2023-02-12T07:26:49.522Z,692.00
2023-02-12T07:27:49.494Z,700.00
2023-02-12T07:28:49.484Z,716.00
2023-02-12T07:29:49.480Z,728.00
2023-02-12T07:30:49.519Z,748.00
2023-02-12T07:31:49.518Z,764.00
2023-02-12T07:32:49.496Z,784.00
2023-02-12T07:33:49.433Z,808.00
2023-02-12T07:34:49.420Z,832.00
2023-02-12T07:35:49.408Z,860.00
2023-02-12T07:36:49.406Z,888.00
2023-02-12T07:37:49.386Z,924.00
2023-02-12T07:38:49.375Z,956.00
2023-02-12T07:39:49.365Z,988.00
2023-02-12T07:40:49.350Z,1016.00
2023-02-12T07:41:49.374Z,1056.00
2023-02-12T07:42:49.321Z,1096.00
2023-02-12T07:43:49.337Z,1128.00
2023-02-12T07:44:49.304Z,1164.00
2023-02-12T07:45:49.293Z,1220.00
2023-02-12T07:46:49.316Z,1288.00
2023-02-12T07:47:49.295Z,1356.00
2023-02-12T07:48:49.278Z,1412.00
2023-02-12T07:49:49.248Z,1464.00
2023-02-12T07:50:49.234Z,1500.00
2023-02-12T07:51:49.236Z,1536.00
2023-02-12T07:52:49.262Z,1580.00
2023-02-12T07:53:49.214Z,1628.00
2023-02-12T07:54:49.193Z,1680.00
2023-02-12T07:55:49.185Z,1716.00
2023-02-12T07:56:49.185Z,1736.00
2023-02-12T07:57:49.243Z,1756.00
2023-02-12T07:58:49.165Z,1788.00
2023-02-12T07:59:49.152Z,1828.00
2023-02-12T08:00:49.156Z,1880.00
2023-02-12T08:01:49.149Z,1928.00
2023-02-12T08:02:49.112Z,1960.00
2023-02-12T08:03:49.114Z,1968.00
2023-02-12T08:04:49.148Z,1976.00
2023-02-12T08:05:49.080Z,2012.00
2023-02-12T08:06:49.081Z,2068.00
2023-02-12T08:07:49.062Z,2132.00
2023-02-12T08:08:49.038Z,2188.00
2023-02-12T08:09:49.039Z,2232.00
2023-02-12T08:10:49.032Z,2264.00
2023-02-12T08:11:49.009Z,2288.00
2023-02-12T08:12:49.012Z,2320.00
2023-02-12T08:13:49.035Z,2376.00
2023-02-12T08:14:48.974Z,2448.00
2023-02-12T08:15:48.994Z,2520.00
2023-02-12T08:16:49.037Z,2572.00
2023-02-12T08:17:48.946Z,2608.00
2023-02-12T08:18:48.925Z,2636.00
2023-02-12T08:19:48.938Z,2656.00
2023-02-12T08:20:48.904Z,2688.00
2023-02-12T08:21:48.921Z,2724.00
2023-02-12T08:22:48.892Z,2744.00
2023-02-12T08:23:48.908Z,2748.00
2023-02-12T08:24:48.888Z,2756.00
2023-02-12T08:25:48.861Z,2788.00
2023-02-12T08:26:48.870Z,2864.00
2023-02-12T08:27:48.845Z,2976.00
2023-02-12T08:28:48.834Z,3096.00
2023-02-12T08:29:48.853Z,3192.00
2023-02-12T08:30:48.824Z,3264.00
2023-02-12T08:31:48.897Z,3308.00
2023-02-12T08:32:48.793Z,3328.00
2023-02-12T08:33:48.783Z,3340.00
2023-02-12T08:34:48.768Z,3352.00
2023-02-12T08:35:48.755Z,3360.00
2023-02-12T08:36:48.752Z,3372.00
2023-02-12T08:37:48.748Z,3388.00
2023-02-12T08:38:48.721Z,3392.00
2023-02-12T08:39:48.708Z,3372.00
2023-02-12T08:40:48.772Z,3332.00
2023-02-12T08:41:48.684Z,3288.00
2023-02-12T08:42:48.690Z,3268.00
2023-02-12T08:43:48.672Z,3280.00
2023-02-12T08:44:48.643Z,3304.00
2023-02-12T08:45:48.715Z,3332.00
2023-02-12T08:46:48.629Z,3360.00
2023-02-12T08:47:48.634Z,3380.00
2023-02-12T08:48:48.630Z,3408.00
2023-02-12T08:49:48.586Z,3452.00
2023-02-12T08:50:48.580Z,3508.00
2023-02-12T08:51:48.639Z,3564.00
2023-02-12T08:52:48.560Z,3616.00
2023-02-12T08:53:48.564Z,3676.00
2023-02-12T08:54:48.538Z,3756.00
2023-02-12T08:55:48.544Z,3824.00
2023-02-12T08:56:48.534Z,3868.00
2023-02-12T08:57:48.530Z,3876.00
2023-02-12T08:58:48.511Z,3864.00
2023-02-12T08:59:48.493Z,3840.00
2023-02-12T09:00:48.482Z,3812.00
2023-02-12T09:01:48.498Z,3812.00
2023-02-12T09:02:48.515Z,3836.00
2023-02-12T09:03:48.504Z,3868.00
2023-02-12T09:04:48.490Z,3912.00
2023-02-12T09:05:48.436Z,3952.00
2023-02-12T09:06:48.426Z,3984.00
2023-02-12T09:07:48.409Z,4008.00
2023-02-12T09:08:48.398Z,4020.00
2023-02-12T09:09:48.380Z,4028.00
2023-02-12T09:10:48.353Z,4060.00
2023-02-12T09:11:48.357Z,4096.00
2023-02-12T09:12:48.352Z,4128.00
2023-02-12T09:13:48.318Z,4152.00
2023-02-12T09:14:48.335Z,4168.00
2023-02-12T09:15:48.316Z,4176.00
2023-02-12T09:16:48.330Z,4200.00
2023-02-12T09:17:48.304Z,4276.00
2023-02-12T09:18:48.268Z,4396.00
2023-02-12T09:19:48.269Z,4496.00
2023-02-12T09:20:48.281Z,4556.00
2023-02-12T09:21:48.247Z,4580.00
2023-02-12T09:22:48.230Z,4576.00
2023-02-12T09:23:48.226Z,4588.00
2023-02-12T09:24:48.209Z,4656.00
2023-02-12T09:25:48.210Z,4728.00
2023-02-12T09:26:48.210Z,4772.00
2023-02-12T09:27:48.193Z,4760.00
2023-02-12T09:28:48.200Z,4728.00
2023-02-12T09:29:48.182Z,4728.00
2023-02-12T09:30:48.296Z,4800.00
2023-02-12T09:31:48.350Z,4888.00
2023-02-12T09:32:48.152Z,4912.00
2023-02-12T09:33:51.701Z,4880.00
2023-02-12T09:34:49.097Z,4840.00
2023-02-12T09:35:48.091Z,4808.00
2023-02-12T09:36:48.123Z,4776.00
2023-02-12T09:37:48.082Z,4784.00
2023-02-12T09:38:48.070Z,4840.00
2023-02-12T09:39:50.854Z,4932.00
2023-02-12T09:40:48.062Z,5004.00
2023-02-12T09:41:48.024Z,5032.00
2023-02-12T09:42:48.007Z,5040.00
2023-02-12T09:43:48.038Z,5044.00
2023-02-12T09:44:48.004Z,5056.00
2023-02-12T09:45:50.314Z,5092.00
2023-02-12T09:46:48.055Z,5148.00
2023-02-12T09:47:47.975Z,5192.00
2023-02-12T09:48:47.961Z,5200.00
2023-02-12T09:49:47.974Z,5184.00
2023-02-12T09:50:47.919Z,5152.00
2023-02-12T09:51:50.991Z,5140.00
2023-02-12T09:52:47.913Z,5160.00
2023-02-12T09:53:47.930Z,5220.00
2023-02-12T09:54:47.889Z,5300.00
2023-02-12T09:55:47.900Z,5400.00
2023-02-12T09:56:47.889Z,5528.00
2023-02-12T09:57:47.860Z,5680.00
2023-02-12T09:58:47.854Z,5872.00
2023-02-12T09:59:47.850Z,6060.00
2023-02-12T10:00:47.815Z,6204.00
2023-02-12T10:01:47.914Z,6272.00
2023-02-12T10:02:47.814Z,6256.00
2023-02-12T10:03:47.792Z,6176.00
2023-02-12T10:05:00.036Z,6104.00
2023-02-12T10:05:48.826Z,6092.00
2023-02-12T10:06:47.748Z,6116.00
2023-02-12T10:07:47.749Z,6128.00
2023-02-12T10:08:47.743Z,6092.00
2023-02-12T10:09:47.719Z,5984.00
2023-02-12T10:10:47.721Z,5880.00
2023-02-12T10:11:47.705Z,5820.00
2023-02-12T10:12:47.698Z,5824.00
2023-02-12T10:13:47.678Z,5884.00
2023-02-12T10:14:47.682Z,5944.00
2023-02-12T10:15:47.689Z,6008.00
2023-02-12T10:16:47.673Z,6064.00
2023-02-12T10:17:47.655Z,6152.00
2023-02-12T10:18:47.631Z,6248.00
2023-02-12T10:19:47.610Z,6340.00
2023-02-12T10:20:47.641Z,6412.00
2023-02-12T10:21:47.651Z,6428.00
2023-02-12T10:22:56.390Z,6404.00
2023-02-12T10:23:48.605Z,6344.00
2023-02-12T10:24:47.580Z,6240.00
2023-02-12T10:25:47.543Z,6140.00
2023-02-12T10:26:47.557Z,6088.00
2023-02-12T10:27:47.529Z,6012.00
2023-02-12T10:28:47.548Z,5892.00
2023-02-12T10:29:47.515Z,5748.00
2023-02-12T10:30:47.682Z,5664.00
2023-02-12T10:31:47.563Z,5636.00
2023-02-12T10:32:47.475Z,5644.00
2023-02-12T10:33:47.465Z,5704.00
2023-02-12T10:34:47.439Z,5796.00
2023-02-12T10:35:47.435Z,5908.00
2023-02-12T10:36:47.427Z,6004.00
2023-02-12T10:37:47.444Z,6088.00
2023-02-12T10:38:47.386Z,6188.00
2023-02-12T10:39:47.457Z,6320.00
2023-02-12T10:40:47.369Z,6440.00
2023-02-12T10:41:47.370Z,6584.00
2023-02-12T10:42:47.354Z,6744.00
2023-02-12T10:43:47.356Z,6860.00
2023-02-12T10:44:47.348Z,6840.00
2023-02-12T10:45:47.325Z,6836.00
2023-02-12T10:46:47.360Z,6728.00
2023-02-12T10:47:47.306Z,6656.00
2023-02-12T10:48:47.291Z,6660.00
2023-02-12T10:49:47.266Z,6700.00
2023-02-12T10:50:47.260Z,6760.00
2023-02-12T10:51:47.264Z,6844.00
2023-02-12T10:52:47.247Z,6956.00
2023-02-12T10:53:47.263Z,7084.00
2023-02-12T10:54:47.226Z,7160.00
2023-02-12T10:55:47.228Z,7236.00
2023-02-12T10:56:47.201Z,7316.00
2023-02-12T10:57:47.175Z,7392.00
2023-02-12T10:58:47.160Z,7448.00
2023-02-12T10:59:47.183Z,7492.00
2023-02-12T11:00:47.165Z,7432.00
2023-02-12T11:01:47.174Z,7544.00
2023-02-12T11:02:47.136Z,7616.00
2023-02-12T11:03:47.116Z,7692.00
2023-02-12T11:04:47.189Z,7708.00
2023-02-12T11:05:47.085Z,7756.00
2023-02-12T11:06:47.096Z,7836.00
2023-02-12T11:07:47.062Z,7880.00
2023-02-12T11:08:47.057Z,7944.00
2023-02-12T11:09:47.085Z,8000.00
2023-02-12T11:10:47.044Z,8060.00
2023-02-12T11:11:48.913Z,8152.00
2023-02-12T11:12:47.006Z,8240.00
2023-02-12T11:13:47.021Z,8300.00
2023-02-12T11:14:47.001Z,8348.00
2023-02-12T11:15:47.039Z,8400.00
2023-02-12T11:16:46.973Z,8432.00
2023-02-12T11:17:46.960Z,8424.00
2023-02-12T11:18:46.950Z,8316.00
2023-02-12T11:19:46.948Z,8160.00
2023-02-12T11:20:46.933Z,8004.00
2023-02-12T11:21:46.950Z,7892.00
2023-02-12T11:22:46.907Z,7856.00
2023-02-12T11:23:46.897Z,7808.00
2023-02-12T11:24:46.889Z,7760.00
2023-02-12T11:25:46.886Z,7728.00
2023-02-12T11:26:46.866Z,7748.00
2023-02-12T11:27:46.855Z,7812.00
2023-02-12T11:28:46.929Z,7836.00
2023-02-12T11:29:48.718Z,7768.00
2023-02-12T11:30:46.822Z,7684.00
2023-02-12T11:31:46.992Z,7548.00
2023-02-12T11:32:46.797Z,7428.00
2023-02-12T11:33:46.765Z,7312.00
2023-02-12T11:34:46.776Z,7228.00
2023-02-12T11:35:46.781Z,7204.00
2023-02-12T11:36:46.754Z,7228.00
2023-02-12T11:37:46.725Z,7216.00
2023-02-12T11:38:46.741Z,7192.00
2023-02-12T11:39:46.697Z,7212.00
2023-02-12T11:40:46.794Z,7304.00
2023-02-12T11:41:46.707Z,7340.00
2023-02-12T11:42:46.679Z,7284.00
2023-02-12T11:43:46.669Z,7180.00
2023-02-12T11:44:46.651Z,7060.00
2023-02-12T11:45:46.636Z,7000.00
2023-02-12T11:46:46.711Z,6988.00
2023-02-12T11:47:46.617Z,6956.00
2023-02-12T11:48:46.621Z,6912.00
2023-02-12T11:49:46.589Z,6844.00
2023-02-12T11:50:46.577Z,6776.00
2023-02-12T11:51:46.574Z,6764.00
2023-02-12T11:52:46.555Z,6792.00
2023-02-12T11:53:46.550Z,6808.00
2023-02-12T11:54:46.562Z,6876.00
2023-02-12T11:55:46.536Z,7052.00
2023-02-12T11:56:46.524Z,7328.00
2023-02-12T11:57:46.568Z,7596.00
2023-02-12T11:58:46.514Z,7796.00
2023-02-12T11:59:46.473Z,7988.00
2023-02-12T12:00:46.480Z,8176.00
2023-02-12T12:01:46.509Z,8304.00
2023-02-12T12:02:46.492Z,8324.00
2023-02-12T12:03:46.454Z,8264.00
2023-02-12T12:04:46.440Z,8252.00
2023-02-12T12:05:46.420Z,8260.00
2023-02-12T12:06:46.403Z,8232.00
2023-02-12T12:07:46.397Z,8148.00
2023-02-12T12:08:46.379Z,7972.00
2023-02-12T12:09:46.363Z,7736.00
2023-02-12T12:10:46.379Z,7536.00
2023-02-12T12:11:46.355Z,7384.00
2023-02-12T12:12:46.342Z,7244.00
2023-02-12T12:13:46.357Z,7140.00
2023-02-12T12:14:46.320Z,7124.00
2023-02-12T12:15:46.307Z,7204.00
2023-02-12T12:16:46.299Z,7264.00
2023-02-12T12:17:46.314Z,7192.00
2023-02-12T12:18:46.276Z,7024.00
2023-02-12T12:19:46.262Z,6820.00
2023-02-12T12:20:46.261Z,6604.00
2023-02-12T12:21:46.231Z,6368.00
2023-02-12T12:22:46.231Z,6104.00
2023-02-12T12:23:46.242Z,5820.00
2023-02-12T12:24:46.189Z,5592.00
2023-02-12T12:25:46.178Z,5428.00
2023-02-12T12:26:46.187Z,5320.00
2023-02-12T12:27:46.177Z,5304.00
2023-02-12T12:28:46.159Z,5332.00
2023-02-12T12:29:46.164Z,5324.00
2023-02-12T12:30:46.197Z,5252.00
2023-02-12T12:31:46.201Z,5196.00
2023-02-12T12:32:46.116Z,5172.00
2023-02-12T12:33:46.096Z,5164.00
2023-02-12T12:34:46.093Z,5160.00
2023-02-12T12:35:46.085Z,5124.00
2023-02-12T12:36:46.086Z,5028.00
2023-02-12T12:37:46.048Z,4892.00
2023-02-12T12:38:46.067Z,4776.00
2023-02-12T12:39:46.047Z,4728.00
2023-02-12T12:40:46.022Z,4748.00
2023-02-12T12:41:46.025Z,4820.00
2023-02-12T12:42:45.995Z,4884.00
2023-02-12T12:43:45.994Z,4896.00